sensor_id;sensor_type;location;lat;lon;timestamp;P1;durP1;ratioP1;P2;durP2;ratioP2
20241;SDS011;10279;46.388;8.116;2023-03-03T00:00:12;25.93;;;14.77;;
20241;SDS011;10279;46.388;8.116;2023-03-03T00:02:39;25.73;;;14.40;;
20241;SDS011;10279;46.388;8.116;2023-03-03T00:05:07;27.03;;;12.97;;
20241;SDS011;10279;46.388;8.116;2023-03-03T00:07:35;23.07;;;13.57;;
20241;SDS011;10279;46.388;8.116;2023-03-03T00:10:02;25.33;;;14.17;;
20241;SDS011;10279;46.388;8.116;2023-03-03T00:12:33;27.40;;;15.33;;
20241;SDS011;10279;46.388;8.116;2023-03-03T00:15:00;29.60;;;16.03;;
20241;SDS011;10279;46.388;8.116;2023-03-03T00:17:29;28.30;;;16.20;;
20241;SDS011;10279;46.388;8.116;2023-03-03T00:19:58;30.67;;;16.70;;
20241;SDS011;10279;46.388;8.116;2023-03-03T00:22:29;27.53;;;15.17;;
20241;SDS011;10279;46.388;8.116;2023-03-03T00:24:58;24.03;;;14.07;;
20241;SDS011;10279;46.388;8.116;2023-03-03T00:27:28;25.43;;;12.73;;
20241;SDS011;10279;46.388;8.116;2023-03-03T00:29:56;23.17;;;13.40;;
20241;SDS011;10279;46.388;8.116;2023-03-03T00:32:40;24.73;;;13.90;;
20241;SDS011;10279;46.388;8.116;2023-03-03T00:35:18;25.90;;;14.53;;
20241;SDS011;10279;46.388;8.116;2023-03-03T00:37:47;25.77;;;15.50;;
20241;SDS011;10279;46.388;8.116;2023-03-03T00:40:22;27.03;;;15.73;;
20241;SDS011;10279;46.388;8.116;2023-03-03T00:42:54;29.30;;;16.63;;
20241;SDS011;10279;46.388;8.116;2023-03-03T00:45:55;30.23;;;15.73;;
20241;SDS011;10279;46.388;8.116;2023-03-03T00:48:28;26.90;;;16.17;;
20241;SDS011;10279;46.388;8.116;2023-03-03T00:50:57;27.10;;;15.07;;
20241;SDS011;10279;46.388;8.116;2023-03-03T00:53:28;26.03;;;15.10;;
20241;SDS011;10279;46.388;8.116;2023-03-03T00:55:56;29.80;;;15.00;;
20241;SDS011;10279;46.388;8.116;2023-03-03T00:58:24;25.77;;;14.77;;
20241;SDS011;10279;46.388;8.116;2023-03-03T01:00:53;22.43;;;13.07;;
20241;SDS011;10279;46.388;8.116;2023-03-03T01:03:23;23.60;;;14.07;;
20241;SDS011;10279;46.388;8.116;2023-03-03T01:05:51;25.43;;;15.17;;
20241;SDS011;10279;46.388;8.116;2023-03-03T01:08:19;26.50;;;14.87;;
20241;SDS011;10279;46.388;8.116;2023-03-03T01:10:48;28.53;;;15.13;;
20241;SDS011;10279;46.388;8.116;2023-03-03T01:13:16;29.93;;;15.80;;
20241;SDS011;10279;46.388;8.116;2023-03-03T01:15:44;29.20;;;15.40;;
20241;SDS011;10279;46.388;8.116;2023-03-03T01:18:12;29.47;;;15.60;;
20241;SDS011;10279;46.388;8.116;2023-03-03T01:20:40;26.97;;;15.73;;
20241;SDS011;10279;46.388;8.116;2023-03-03T01:23:07;24.67;;;14.60;;
20241;SDS011;10279;46.388;8.116;2023-03-03T01:25:35;26.13;;;13.90;;
20241;SDS011;10279;46.388;8.116;2023-03-03T01:28:03;24.70;;;13.77;;
20241;SDS011;10279;46.388;8.116;2023-03-03T01:30:30;20.77;;;12.00;;
20241;SDS011;10279;46.388;8.116;2023-03-03T01:32:58;20.00;;;12.00;;
20241;SDS011;10279;46.388;8.116;2023-03-03T01:35:25;22.30;;;12.90;;
20241;SDS011;10279;46.388;8.116;2023-03-03T01:37:53;21.20;;;12.53;;
20241;SDS011;10279;46.388;8.116;2023-03-03T01:40:22;20.37;;;12.57;;
20241;SDS011;10279;46.388;8.116;2023-03-03T01:42:50;20.63;;;11.70;;
20241;SDS011;10279;46.388;8.116;2023-03-03T01:47:55;24.47;;;14.17;;
20241;SDS011;10279;46.388;8.116;2023-03-03T01:50:37;24.57;;;14.80;;
20241;SDS011;10279;46.388;8.116;2023-03-03T01:53:08;28.23;;;14.90;;
20241;SDS011;10279;46.388;8.116;2023-03-03T01:55:38;25.67;;;13.50;;
20241;SDS011;10279;46.388;8.116;2023-03-03T01:58:07;24.67;;;12.77;;
20241;SDS011;10279;46.388;8.116;2023-03-03T02:00:36;23.67;;;12.87;;
20241;SDS011;10279;46.388;8.116;2023-03-03T02:03:04;24.73;;;12.87;;
20241;SDS011;10279;46.388;8.116;2023-03-03T02:05:32;21.90;;;11.87;;
20241;SDS011;10279;46.388;8.116;2023-03-03T02:08:02;23.63;;;12.40;;
20241;SDS011;10279;46.388;8.116;2023-03-03T02:10:29;21.40;;;11.83;;
20241;SDS011;10279;46.388;8.116;2023-03-03T02:12:57;20.03;;;11.33;;
20241;SDS011;10279;46.388;8.116;2023-03-03T02:15:26;17.03;;;10.40;;
20241;SDS011;10279;46.388;8.116;2023-03-03T02:17:55;23.03;;;11.33;;
20241;SDS011;10279;46.388;8.116;2023-03-03T02:23:06;21.73;;;12.33;;
20241;SDS011;10279;46.388;8.116;2023-03-03T02:25:45;19.67;;;11.43;;
20241;SDS011;10279;46.388;8.116;2023-03-03T02:28:14;22.03;;;11.97;;
20241;SDS011;10279;46.388;8.116;2023-03-03T02:30:42;23.50;;;12.00;;
20241;SDS011;10279;46.388;8.116;2023-03-03T02:33:10;21.40;;;11.33;;
20241;SDS011;10279;46.388;8.116;2023-03-03T02:35:38;23.17;;;11.87;;
20241;SDS011;10279;46.388;8.116;2023-03-03T02:38:20;22.93;;;12.43;;
20241;SDS011;10279;46.388;8.116;2023-03-03T02:43:25;19.00;;;11.60;;
20241;SDS011;10279;46.388;8.116;2023-03-03T02:45:55;19.60;;;11.33;;
20241;SDS011;10279;46.388;8.116;2023-03-03T02:48:23;24.83;;;13.93;;
20241;SDS011;10279;46.388;8.116;2023-03-03T02:50:50;21.63;;;11.97;;
20241;SDS011;10279;46.388;8.116;2023-03-03T02:53:17;20.87;;;11.20;;
20241;SDS011;10279;46.388;8.116;2023-03-03T02:55:45;20.53;;;11.60;;
20241;SDS011;10279;46.388;8.116;2023-03-03T02:58:13;21.47;;;11.33;;
20241;SDS011;10279;46.388;8.116;2023-03-03T03:00:40;22.47;;;11.67;;
20241;SDS011;10279;46.388;8.116;2023-03-03T03:03:07;21.57;;;12.93;;
20241;SDS011;10279;46.388;8.116;2023-03-03T03:05:35;25.00;;;12.47;;
20241;SDS011;10279;46.388;8.116;2023-03-03T03:08:02;19.73;;;12.13;;
20241;SDS011;10279;46.388;8.116;2023-03-03T03:10:29;24.63;;;13.03;;
20241;SDS011;10279;46.388;8.116;2023-03-03T03:12:57;20.10;;;12.03;;
20241;SDS011;10279;46.388;8.116;2023-03-03T03:15:24;25.47;;;11.97;;
20241;SDS011;10279;46.388;8.116;2023-03-03T03:17:52;20.13;;;11.50;;
20241;SDS011;10279;46.388;8.116;2023-03-03T03:20:19;20.30;;;10.63;;
20241;SDS011;10279;46.388;8.116;2023-03-03T03:22:46;20.40;;;11.43;;
20241;SDS011;10279;46.388;8.116;2023-03-03T03:25:14;19.30;;;9.93;;
20241;SDS011;10279;46.388;8.116;2023-03-03T03:27:41;17.50;;;9.20;;
20241;SDS011;10279;46.388;8.116;2023-03-03T03:30:09;16.80;;;9.50;;
20241;SDS011;10279;46.388;8.116;2023-03-03T03:32:37;14.73;;;9.30;;
20241;SDS011;10279;46.388;8.116;2023-03-03T03:35:04;15.00;;;9.50;;
20241;SDS011;10279;46.388;8.116;2023-03-03T03:37:32;21.00;;;10.87;;
20241;SDS011;10279;46.388;8.116;2023-03-03T03:39:59;18.80;;;9.93;;
20241;SDS011;10279;46.388;8.116;2023-03-03T03:42:26;22.30;;;11.27;;
20241;SDS011;10279;46.388;8.116;2023-03-03T03:44:54;19.17;;;11.27;;
20241;SDS011;10279;46.388;8.116;2023-03-03T03:47:21;22.23;;;12.10;;
20241;SDS011;10279;46.388;8.116;2023-03-03T03:49:48;20.27;;;11.53;;
20241;SDS011;10279;46.388;8.116;2023-03-03T03:52:16;20.37;;;10.77;;
20241;SDS011;10279;46.388;8.116;2023-03-03T03:54:44;18.77;;;10.50;;
20241;SDS011;10279;46.388;8.116;2023-03-03T03:57:11;21.10;;;11.30;;
20241;SDS011;10279;46.388;8.116;2023-03-03T03:59:39;16.83;;;10.57;;
20241;SDS011;10279;46.388;8.116;2023-03-03T04:02:07;19.33;;;10.30;;
20241;SDS011;10279;46.388;8.116;2023-03-03T04:04:34;19.10;;;10.70;;
20241;SDS011;10279;46.388;8.116;2023-03-03T04:07:02;19.73;;;11.10;;
20241;SDS011;10279;46.388;8.116;2023-03-03T04:09:29;19.13;;;10.20;;
20241;SDS011;10279;46.388;8.116;2023-03-03T04:11:57;18.23;;;9.30;;
20241;SDS011;10279;46.388;8.116;2023-03-03T04:14:24;19.33;;;10.53;;
20241;SDS011;10279;46.388;8.116;2023-03-03T04:16:51;15.57;;;9.43;;
20241;SDS011;10279;46.388;8.116;2023-03-03T04:19:19;16.63;;;10.03;;
20241;SDS011;10279;46.388;8.116;2023-03-03T04:21:46;18.20;;;9.53;;
20241;SDS011;10279;46.388;8.116;2023-03-03T04:24:14;17.07;;;8.83;;
20241;SDS011;10279;46.388;8.116;2023-03-03T04:26:42;14.57;;;8.63;;
20241;SDS011;10279;46.388;8.116;2023-03-03T04:29:09;17.47;;;8.87;;
20241;SDS011;10279;46.388;8.116;2023-03-03T04:31:36;16.17;;;10.10;;
20241;SDS011;10279;46.388;8.116;2023-03-03T04:34:04;16.73;;;10.30;;
20241;SDS011;10279;46.388;8.116;2023-03-03T04:36:31;18.57;;;9.70;;
20241;SDS011;10279;46.388;8.116;2023-03-03T04:38:58;16.40;;;9.13;;
20241;SDS011;10279;46.388;8.116;2023-03-03T04:41:26;18.33;;;9.87;;
20241;SDS011;10279;46.388;8.116;2023-03-03T04:43:53;14.90;;;9.33;;
20241;SDS011;10279;46.388;8.116;2023-03-03T04:46:21;14.87;;;8.10;;
20241;SDS011;10279;46.388;8.116;2023-03-03T04:48:48;16.77;;;9.10;;
20241;SDS011;10279;46.388;8.116;2023-03-03T04:51:18;14.17;;;8.03;;
20241;SDS011;10279;46.388;8.116;2023-03-03T04:53:45;15.00;;;8.17;;
20241;SDS011;10279;46.388;8.116;2023-03-03T04:56:13;14.13;;;8.13;;
20241;SDS011;10279;46.388;8.116;2023-03-03T04:58:41;12.10;;;7.47;;
20241;SDS011;10279;46.388;8.116;2023-03-03T05:01:10;13.53;;;6.63;;
20241;SDS011;10279;46.388;8.116;2023-03-03T05:03:39;15.23;;;6.80;;
20241;SDS011;10279;46.388;8.116;2023-03-03T05:06:06;13.63;;;7.53;;
20241;SDS011;10279;46.388;8.116;2023-03-03T05:08:34;15.83;;;8.70;;
20241;SDS011;10279;46.388;8.116;2023-03-03T05:11:02;13.90;;;8.10;;
20241;SDS011;10279;46.388;8.116;2023-03-03T05:13:29;17.60;;;8.50;;
20241;SDS011;10279;46.388;8.116;2023-03-03T05:15:57;11.73;;;7.20;;
20241;SDS011;10279;46.388;8.116;2023-03-03T05:18:24;18.23;;;8.07;;
20241;SDS011;10279;46.388;8.116;2023-03-03T05:20:52;15.87;;;7.33;;
20241;SDS011;10279;46.388;8.116;2023-03-03T05:23:20;18.13;;;7.93;;
20241;SDS011;10279;46.388;8.116;2023-03-03T05:25:48;13.00;;;7.60;;
20241;SDS011;10279;46.388;8.116;2023-03-03T05:28:16;15.00;;;7.63;;
20241;SDS011;10279;46.388;8.116;2023-03-03T05:30:43;11.17;;;6.80;;
20241;SDS011;10279;46.388;8.116;2023-03-03T05:33:11;13.50;;;7.77;;
20241;SDS011;10279;46.388;8.116;2023-03-03T05:35:39;15.40;;;8.53;;
20241;SDS011;10279;46.388;8.116;2023-03-03T05:38:06;17.40;;;8.67;;
20241;SDS011;10279;46.388;8.116;2023-03-03T05:40:34;14.70;;;7.80;;
20241;SDS011;10279;46.388;8.116;2023-03-03T05:43:01;16.73;;;8.10;;
20241;SDS011;10279;46.388;8.116;2023-03-03T05:45:29;12.73;;;7.00;;
20241;SDS011;10279;46.388;8.116;2023-03-03T05:47:56;15.70;;;7.87;;
20241;SDS011;10279;46.388;8.116;2023-03-03T05:50:24;14.70;;;7.43;;
20241;SDS011;10279;46.388;8.116;2023-03-03T05:52:51;12.10;;;7.27;;
20241;SDS011;10279;46.388;8.116;2023-03-03T05:55:20;14.30;;;6.50;;
20241;SDS011;10279;46.388;8.116;2023-03-03T05:57:48;12.80;;;6.80;;
20241;SDS011;10279;46.388;8.116;2023-03-03T06:00:15;14.33;;;6.93;;
20241;SDS011;10279;46.388;8.116;2023-03-03T06:02:43;13.33;;;6.90;;
20241;SDS011;10279;46.388;8.116;2023-03-03T06:05:10;12.03;;;7.27;;
20241;SDS011;10279;46.388;8.116;2023-03-03T06:07:38;11.23;;;6.53;;
20241;SDS011;10279;46.388;8.116;2023-03-03T06:10:07;12.13;;;5.70;;
20241;SDS011;10279;46.388;8.116;2023-03-03T06:12:35;10.17;;;5.63;;
20241;SDS011;10279;46.388;8.116;2023-03-03T06:15:05;10.87;;;5.73;;
20241;SDS011;10279;46.388;8.116;2023-03-03T06:17:32;10.33;;;5.70;;
20241;SDS011;10279;46.388;8.116;2023-03-03T06:20:00;14.30;;;6.60;;
20241;SDS011;10279;46.388;8.116;2023-03-03T06:22:28;9.47;;;5.40;;
20241;SDS011;10279;46.388;8.116;2023-03-03T06:24:56;7.77;;;5.00;;
20241;SDS011;10279;46.388;8.116;2023-03-03T06:27:23;8.23;;;5.20;;
20241;SDS011;10279;46.388;8.116;2023-03-03T06:29:51;13.40;;;5.80;;
20241;SDS011;10279;46.388;8.116;2023-03-03T06:32:18;10.93;;;5.40;;
20241;SDS011;10279;46.388;8.116;2023-03-03T06:34:46;10.47;;;5.33;;
20241;SDS011;10279;46.388;8.116;2023-03-03T06:37:13;9.17;;;5.40;;
20241;SDS011;10279;46.388;8.116;2023-03-03T06:39:40;11.20;;;5.00;;
20241;SDS011;10279;46.388;8.116;2023-03-03T06:42:08;10.20;;;5.17;;
20241;SDS011;10279;46.388;8.116;2023-03-03T06:44:36;9.37;;;5.27;;
20241;SDS011;10279;46.388;8.116;2023-03-03T06:47:03;9.77;;;5.73;;
20241;SDS011;10279;46.388;8.116;2023-03-03T06:49:31;10.93;;;5.90;;
20241;SDS011;10279;46.388;8.116;2023-03-03T06:51:59;9.67;;;5.30;;
20241;SDS011;10279;46.388;8.116;2023-03-03T06:54:27;9.43;;;5.60;;
20241;SDS011;10279;46.388;8.116;2023-03-03T06:56:57;9.57;;;4.73;;
20241;SDS011;10279;46.388;8.116;2023-03-03T06:59:25;8.93;;;5.10;;
20241;SDS011;10279;46.388;8.116;2023-03-03T07:01:54;11.20;;;6.00;;
20241;SDS011;10279;46.388;8.116;2023-03-03T07:04:29;9.53;;;5.30;;
20241;SDS011;10279;46.388;8.116;2023-03-03T07:06:59;9.27;;;5.40;;
20241;SDS011;10279;46.388;8.116;2023-03-03T07:09:32;8.07;;;4.77;;
20241;SDS011;10279;46.388;8.116;2023-03-03T07:12:00;9.53;;;5.40;;
20241;SDS011;10279;46.388;8.116;2023-03-03T07:14:28;8.67;;;5.17;;
20241;SDS011;10279;46.388;8.116;2023-03-03T07:16:59;7.20;;;4.70;;
20241;SDS011;10279;46.388;8.116;2023-03-03T07:19:34;8.20;;;4.77;;
20241;SDS011;10279;46.388;8.116;2023-03-03T07:24:39;8.67;;;5.10;;
20241;SDS011;10279;46.388;8.116;2023-03-03T07:29:40;11.67;;;6.60;;
20241;SDS011;10279;46.388;8.116;2023-03-03T07:32:16;9.03;;;6.20;;
20241;SDS011;10279;46.388;8.116;2023-03-03T07:34:46;9.20;;;5.87;;
20241;SDS011;10279;46.388;8.116;2023-03-03T07:39:43;7.13;;;4.80;;
20241;SDS011;10279;46.388;8.116;2023-03-03T07:44:55;12.97;;;5.60;;
20241;SDS011;10279;46.388;8.116;2023-03-03T07:47:25;9.40;;;4.30;;
20241;SDS011;10279;46.388;8.116;2023-03-03T07:49:54;5.77;;;4.40;;
20241;SDS011;10279;46.388;8.116;2023-03-03T07:54:59;10.47;;;5.10;;
20241;SDS011;10279;46.388;8.116;2023-03-03T07:57:36;8.87;;;3.80;;
20241;SDS011;10279;46.388;8.116;2023-03-03T08:08:02;5.37;;;4.10;;
20241;SDS011;10279;46.388;8.116;2023-03-03T08:13:38;8.20;;;4.83;;
20241;SDS011;10279;46.388;8.116;2023-03-03T08:16:01;19.63;;;10.80;;
20241;SDS011;10279;46.388;8.116;2023-03-03T08:18:47;17.23;;;9.67;;
20241;SDS011;10279;46.388;8.116;2023-03-03T08:21:18;11.10;;;6.13;;
20241;SDS011;10279;46.388;8.116;2023-03-03T08:23:46;9.17;;;5.33;;
20241;SDS011;10279;46.388;8.116;2023-03-03T08:26:17;7.30;;;4.73;;
20241;SDS011;10279;46.388;8.116;2023-03-03T08:28:45;9.27;;;5.03;;
20241;SDS011;10279;46.388;8.116;2023-03-03T08:31:13;9.27;;;4.80;;
20241;SDS011;10279;46.388;8.116;2023-03-03T08:34:00;8.80;;;5.53;;
20241;SDS011;10279;46.388;8.116;2023-03-03T08:36:28;7.90;;;4.67;;
20241;SDS011;10279;46.388;8.116;2023-03-03T08:38:59;8.97;;;4.83;;
20241;SDS011;10279;46.388;8.116;2023-03-03T08:41:27;8.10;;;4.80;;
20241;SDS011;10279;46.388;8.116;2023-03-03T08:43:54;7.40;;;4.47;;
20241;SDS011;10279;46.388;8.116;2023-03-03T08:46:22;7.03;;;4.20;;
20241;SDS011;10279;46.388;8.116;2023-03-03T08:48:49;5.57;;;3.97;;
20241;SDS011;10279;46.388;8.116;2023-03-03T08:51:18;9.33;;;4.20;;
20241;SDS011;10279;46.388;8.116;2023-03-03T08:53:45;6.73;;;4.53;;
20241;SDS011;10279;46.388;8.116;2023-03-03T08:56:13;7.77;;;4.97;;
20241;SDS011;10279;46.388;8.116;2023-03-03T08:58:40;7.13;;;4.60;;
20241;SDS011;10279;46.388;8.116;2023-03-03T09:01:27;7.20;;;4.33;;
20241;SDS011;10279;46.388;8.116;2023-03-03T09:03:54;7.67;;;4.10;;
20241;SDS011;10279;46.388;8.116;2023-03-03T09:06:22;9.20;;;4.67;;
20241;SDS011;10279;46.388;8.116;2023-03-03T09:08:49;5.77;;;3.80;;
20241;SDS011;10279;46.388;8.116;2023-03-03T09:11:20;8.03;;;3.90;;
20241;SDS011;10279;46.388;8.116;2023-03-03T09:13:48;5.43;;;3.57;;
20241;SDS011;10279;46.388;8.116;2023-03-03T09:16:18;8.37;;;3.60;;
20241;SDS011;10279;46.388;8.116;2023-03-03T09:18:47;6.20;;;3.73;;
20241;SDS011;10279;46.388;8.116;2023-03-03T09:21:25;5.20;;;3.77;;
20241;SDS011;10279;46.388;8.116;2023-03-03T09:23:56;5.07;;;3.47;;
20241;SDS011;10279;46.388;8.116;2023-03-03T09:29:08;5.73;;;3.23;;
20241;SDS011;10279;46.388;8.116;2023-03-03T09:36:51;6.87;;;3.67;;
20241;SDS011;10279;46.388;8.116;2023-03-03T09:39:23;8.07;;;3.27;;
20241;SDS011;10279;46.388;8.116;2023-03-03T09:57:58;4.80;;;2.87;;
20241;SDS011;10279;46.388;8.116;2023-03-03T10:03:30;4.07;;;3.13;;
20241;SDS011;10279;46.388;8.116;2023-03-03T10:11:17;5.67;;;3.40;;
20241;SDS011;10279;46.388;8.116;2023-03-03T10:16:47;5.77;;;3.23;;
20241;SDS011;10279;46.388;8.116;2023-03-03T10:24:56;4.77;;;2.63;;
20241;SDS011;10279;46.388;8.116;2023-03-03T10:27:35;6.17;;;2.70;;
20241;SDS011;10279;46.388;8.116;2023-03-03T10:37:51;5.17;;;3.00;;
20241;SDS011;10279;46.388;8.116;2023-03-03T10:42:58;5.87;;;2.47;;
20241;SDS011;10279;46.388;8.116;2023-03-03T10:53:26;2.97;;;2.17;;
20241;SDS011;10279;46.388;8.116;2023-03-03T10:58:49;4.83;;;3.00;;
20241;SDS011;10279;46.388;8.116;2023-03-03T11:04:02;3.93;;;2.40;;
20241;SDS011;10279;46.388;8.116;2023-03-03T11:06:53;4.30;;;2.47;;
20241;SDS011;10279;46.388;8.116;2023-03-03T11:09:36;2.83;;;1.90;;
20241;SDS011;10279;46.388;8.116;2023-03-03T11:17:31;3.27;;;2.10;;
20241;SDS011;10279;46.388;8.116;2023-03-03T11:20:11;3.53;;;2.33;;
20241;SDS011;10279;46.388;8.116;2023-03-03T11:25:26;3.50;;;2.10;;
20241;SDS011;10279;46.388;8.116;2023-03-03T11:38:47;3.43;;;2.00;;
20241;SDS011;10279;46.388;8.116;2023-03-03T11:41:22;2.67;;;2.00;;
20241;SDS011;10279;46.388;8.116;2023-03-03T11:44:28;10.07;;;1.97;;
20241;SDS011;10279;46.388;8.116;2023-03-03T11:46:48;5.13;;;1.93;;
20241;SDS011;10279;46.388;8.116;2023-03-03T11:49:27;4.70;;;1.97;;
20241;SDS011;10279;46.388;8.116;2023-03-03T11:52:04;2.23;;;1.53;;
20241;SDS011;10279;46.388;8.116;2023-03-03T11:59:55;1.70;;;1.60;;
20241;SDS011;10279;46.388;8.116;2023-03-03T12:02:35;1.93;;;1.50;;
20241;SDS011;10279;46.388;8.116;2023-03-03T12:07:40;4.90;;;1.70;;
20241;SDS011;10279;46.388;8.116;2023-03-03T12:10:16;2.33;;;1.57;;
20241;SDS011;10279;46.388;8.116;2023-03-03T12:12:49;4.30;;;1.50;;
20241;SDS011;10279;46.388;8.116;2023-03-03T12:15:21;3.13;;;1.67;;
20241;SDS011;10279;46.388;8.116;2023-03-03T12:18:06;4.50;;;1.40;;
20241;SDS011;10279;46.388;8.116;2023-03-03T12:25:43;2.10;;;1.30;;
20241;SDS011;10279;46.388;8.116;2023-03-03T12:35:53;3.27;;;1.97;;
20241;SDS011;10279;46.388;8.116;2023-03-03T12:46:10;3.00;;;2.03;;
20241;SDS011;10279;46.388;8.116;2023-03-03T12:48:41;4.50;;;2.40;;
20241;SDS011;10279;46.388;8.116;2023-03-03T12:56:44;4.60;;;2.70;;
20241;SDS011;10279;46.388;8.116;2023-03-03T12:59:30;2.90;;;2.33;;
20241;SDS011;10279;46.388;8.116;2023-03-03T13:07:33;5.30;;;2.10;;
20241;SDS011;10279;46.388;8.116;2023-03-03T13:10:07;2.77;;;2.20;;
20241;SDS011;10279;46.388;8.116;2023-03-03T13:12:43;4.10;;;2.40;;
20241;SDS011;10279;46.388;8.116;2023-03-03T13:15:13;6.57;;;2.60;;
20241;SDS011;10279;46.388;8.116;2023-03-03T13:20:19;7.20;;;3.30;;
20241;SDS011;10279;46.388;8.116;2023-03-03T13:22:58;6.10;;;2.90;;
20241;SDS011;10279;46.388;8.116;2023-03-03T13:28:39;7.47;;;3.90;;
20241;SDS011;10279;46.388;8.116;2023-03-03T13:31:05;6.43;;;3.33;;
20241;SDS011;10279;46.388;8.116;2023-03-03T13:33:35;5.43;;;3.53;;
20241;SDS011;10279;46.388;8.116;2023-03-03T13:36:05;5.67;;;3.50;;
20241;SDS011;10279;46.388;8.116;2023-03-03T13:41:20;5.60;;;3.53;;
20241;SDS011;10279;46.388;8.116;2023-03-03T13:43:50;7.43;;;4.10;;
20241;SDS011;10279;46.388;8.116;2023-03-03T13:59:18;7.37;;;4.03;;
20241;SDS011;10279;46.388;8.116;2023-03-03T14:07:01;6.23;;;4.00;;
20241;SDS011;10279;46.388;8.116;2023-03-03T14:09:39;6.40;;;4.23;;
20241;SDS011;10279;46.388;8.116;2023-03-03T14:17:33;7.33;;;4.40;;
20241;SDS011;10279;46.388;8.116;2023-03-03T14:22:53;5.57;;;4.10;;
20241;SDS011;10279;46.388;8.116;2023-03-03T14:25:22;7.07;;;4.23;;
20241;SDS011;10279;46.388;8.116;2023-03-03T14:27:53;9.17;;;4.30;;
20241;SDS011;10279;46.388;8.116;2023-03-03T14:35:28;7.47;;;4.67;;
20241;SDS011;10279;46.388;8.116;2023-03-03T14:38:00;6.90;;;4.40;;
20241;SDS011;10279;46.388;8.116;2023-03-03T14:40:31;8.23;;;4.33;;
20241;SDS011;10279;46.388;8.116;2023-03-03T14:43:00;8.53;;;5.13;;
20241;SDS011;10279;46.388;8.116;2023-03-03T14:47:57;8.07;;;5.03;;
20241;SDS011;10279;46.388;8.116;2023-03-03T14:53:04;9.37;;;4.40;;
20241;SDS011;10279;46.388;8.116;2023-03-03T14:55:36;7.90;;;4.50;;
20241;SDS011;10279;46.388;8.116;2023-03-03T14:58:09;9.93;;;5.30;;
20241;SDS011;10279;46.388;8.116;2023-03-03T15:00:50;6.50;;;4.63;;
20241;SDS011;10279;46.388;8.116;2023-03-03T15:03:37;9.33;;;4.77;;
20241;SDS011;10279;46.388;8.116;2023-03-03T15:06:10;8.77;;;4.70;;
20241;SDS011;10279;46.388;8.116;2023-03-03T15:08:39;10.03;;;5.67;;
20241;SDS011;10279;46.388;8.116;2023-03-03T15:13:43;9.97;;;6.37;;
20241;SDS011;10279;46.388;8.116;2023-03-03T15:16:22;11.97;;;7.00;;
20241;SDS011;10279;46.388;8.116;2023-03-03T15:21:38;8.87;;;5.93;;
20241;SDS011;10279;46.388;8.116;2023-03-03T15:24:11;9.87;;;6.00;;
20241;SDS011;10279;46.388;8.116;2023-03-03T15:29:16;14.27;;;7.63;;
20241;SDS011;10279;46.388;8.116;2023-03-03T15:34:45;9.97;;;7.13;;
20241;SDS011;10279;46.388;8.116;2023-03-03T16:03:46;19.00;;;10.00;;
20241;SDS011;10279;46.388;8.116;2023-03-03T16:06:21;20.40;;;11.03;;
20241;SDS011;10279;46.388;8.116;2023-03-03T16:09:02;21.93;;;11.63;;
20241;SDS011;10279;46.388;8.116;2023-03-03T16:11:40;22.47;;;11.93;;
20241;SDS011;10279;46.388;8.116;2023-03-03T16:17:00;18.10;;;10.90;;
20241;SDS011;10279;46.388;8.116;2023-03-03T16:22:15;23.77;;;11.87;;
20241;SDS011;10279;46.388;8.116;2023-03-03T16:25:52;21.80;;;11.60;;
20241;SDS011;10279;46.388;8.116;2023-03-03T16:30:25;20.07;;;11.50;;
20241;SDS011;10279;46.388;8.116;2023-03-03T16:33:17;24.33;;;12.57;;
20241;SDS011;10279;46.388;8.116;2023-03-03T16:35:42;21.13;;;13.40;;
20241;SDS011;10279;46.388;8.116;2023-03-03T16:38:22;24.50;;;13.37;;
20241;SDS011;10279;46.388;8.116;2023-03-03T16:40:52;21.73;;;12.57;;
20241;SDS011;10279;46.388;8.116;2023-03-03T16:48:53;23.07;;;11.97;;
20241;SDS011;10279;46.388;8.116;2023-03-03T16:54:10;29.73;;;15.70;;
20241;SDS011;10279;46.388;8.116;2023-03-03T17:04:33;31.63;;;16.90;;
20241;SDS011;10279;46.388;8.116;2023-03-03T17:09:39;35.67;;;17.40;;
20241;SDS011;10279;46.388;8.116;2023-03-03T17:12:14;34.63;;;17.77;;
20241;SDS011;10279;46.388;8.116;2023-03-03T17:20:36;33.10;;;17.47;;
20241;SDS011;10279;46.388;8.116;2023-03-03T17:28:18;36.87;;;19.53;;
20241;SDS011;10279;46.388;8.116;2023-03-03T17:33:30;39.83;;;19.93;;
20241;SDS011;10279;46.388;8.116;2023-03-03T17:46:43;37.97;;;21.33;;
20241;SDS011;10279;46.388;8.116;2023-03-03T17:49:24;37.17;;;20.23;;
20241;SDS011;10279;46.388;8.116;2023-03-03T18:08:00;40.47;;;21.23;;
20241;SDS011;10279;46.388;8.116;2023-03-03T18:16:00;41.07;;;22.33;;
20241;SDS011;10279;46.388;8.116;2023-03-03T18:21:25;42.87;;;23.03;;
20241;SDS011;10279;46.388;8.116;2023-03-03T18:24:12;48.37;;;24.63;;
20241;SDS011;10279;46.388;8.116;2023-03-03T18:26:41;41.73;;;23.53;;
20241;SDS011;10279;46.388;8.116;2023-03-03T18:31:45;48.40;;;25.50;;
20241;SDS011;10279;46.388;8.116;2023-03-03T18:39:46;47.00;;;23.00;;
20241;SDS011;10279;46.388;8.116;2023-03-03T18:44:44;40.23;;;23.07;;
20241;SDS011;10279;46.388;8.116;2023-03-03T18:47:15;41.97;;;23.37;;
20241;SDS011;10279;46.388;8.116;2023-03-03T18:52:39;42.07;;;23.10;;
20241;SDS011;10279;46.388;8.116;2023-03-03T18:55:26;44.43;;;22.83;;
20241;SDS011;10279;46.388;8.116;2023-03-03T18:58:00;45.97;;;23.03;;
20241;SDS011;10279;46.388;8.116;2023-03-03T19:00:28;44.77;;;22.37;;
20241;SDS011;10279;46.388;8.116;2023-03-03T19:02:57;42.93;;;23.60;;
20241;SDS011;10279;46.388;8.116;2023-03-03T19:05:27;46.50;;;24.37;;
20241;SDS011;10279;46.388;8.116;2023-03-03T19:08:01;48.97;;;25.03;;
20241;SDS011;10279;46.388;8.116;2023-03-03T19:18:32;42.27;;;23.23;;
20241;SDS011;10279;46.388;8.116;2023-03-03T19:21:03;50.43;;;25.13;;
20241;SDS011;10279;46.388;8.116;2023-03-03T19:28:54;36.80;;;18.93;;
20241;SDS011;10279;46.388;8.116;2023-03-03T19:34:15;30.47;;;17.37;;
20241;SDS011;10279;46.388;8.116;2023-03-03T19:37:03;32.93;;;17.60;;
20241;SDS011;10279;46.388;8.116;2023-03-03T19:39:42;29.50;;;16.17;;
20241;SDS011;10279;46.388;8.116;2023-03-03T19:52:58;30.30;;;17.23;;
20241;SDS011;10279;46.388;8.116;2023-03-03T19:55:48;30.53;;;16.90;;
20241;SDS011;10279;46.388;8.116;2023-03-03T20:05:55;37.00;;;20.07;;
20241;SDS011;10279;46.388;8.116;2023-03-03T20:11:19;35.03;;;20.17;;
20241;SDS011;10279;46.388;8.116;2023-03-03T20:13:53;40.77;;;20.20;;
20241;SDS011;10279;46.388;8.116;2023-03-03T20:16:33;39.03;;;21.07;;
20241;SDS011;10279;46.388;8.116;2023-03-03T20:27:02;37.10;;;20.30;;
20241;SDS011;10279;46.388;8.116;2023-03-03T20:32:32;45.70;;;23.93;;
20241;SDS011;10279;46.388;8.116;2023-03-03T20:40:19;42.30;;;22.07;;
20241;SDS011;10279;46.388;8.116;2023-03-03T20:42:56;38.80;;;20.37;;
20241;SDS011;10279;46.388;8.116;2023-03-03T20:48:04;41.17;;;22.43;;
20241;SDS011;10279;46.388;8.116;2023-03-03T20:55:55;39.70;;;21.50;;
20241;SDS011;10279;46.388;8.116;2023-03-03T21:00:56;42.10;;;22.20;;
20241;SDS011;10279;46.388;8.116;2023-03-03T21:03:33;41.27;;;22.00;;
20241;SDS011;10279;46.388;8.116;2023-03-03T21:06:03;41.67;;;22.03;;
20241;SDS011;10279;46.388;8.116;2023-03-03T21:11:06;46.37;;;23.77;;
20241;SDS011;10279;46.388;8.116;2023-03-03T21:18:36;37.30;;;21.83;;
20241;SDS011;10279;46.388;8.116;2023-03-03T21:21:04;44.83;;;24.37;;
20241;SDS011;10279;46.388;8.116;2023-03-03T21:23:31;40.70;;;22.47;;
20241;SDS011;10279;46.388;8.116;2023-03-03T21:25:59;41.40;;;21.13;;
20241;SDS011;10279;46.388;8.116;2023-03-03T21:28:27;39.10;;;21.80;;
20241;SDS011;10279;46.388;8.116;2023-03-03T21:31:05;39.30;;;20.43;;